createdAt,value
2023-05-09T00:01:14.427Z,7.45
2023-05-09T00:03:42.867Z,7.95
2023-05-09T00:06:11.496Z,8.18
2023-05-09T00:08:38.909Z,8.18
2023-05-09T00:11:06.254Z,7.25
2023-05-09T00:13:34.745Z,8.73
2023-05-09T00:16:02.369Z,8.07
2023-05-09T00:18:31.151Z,7.25
2023-05-09T00:20:58.648Z,8.90
2023-05-09T00:23:25.928Z,8.10
2023-05-09T00:25:53.204Z,7.40
2023-05-09T00:28:20.512Z,7.10
2023-05-09T00:30:47.747Z,8.52
2023-05-09T00:33:15.214Z,7.53
2023-05-09T00:35:42.492Z,8.30
2023-05-09T00:38:09.992Z,7.40
2023-05-09T00:40:37.354Z,7.65
2023-05-09T00:43:04.988Z,6.43
2023-05-09T00:45:32.535Z,6.60
2023-05-09T00:47:59.858Z,7.07
2023-05-09T00:50:27.248Z,7.00
2023-05-09T00:52:54.844Z,7.18
2023-05-09T00:55:22.258Z,6.32
2023-05-09T00:57:49.585Z,6.70
2023-05-09T01:00:18.711Z,7.20
2023-05-09T01:02:51.044Z,6.47
2023-05-09T01:05:19.009Z,6.57
2023-05-09T01:08:05.993Z,6.72
2023-05-09T01:11:04.058Z,6.55
2023-05-09T01:13:40.485Z,5.88
2023-05-09T01:16:12.668Z,5.53
2023-05-09T01:18:48.990Z,5.70
2023-05-09T01:21:29.270Z,7.35
2023-05-09T01:24:02.138Z,6.47
2023-05-09T01:27:11.526Z,6.70
2023-05-09T01:29:46.118Z,6.70
2023-05-09T01:34:49.894Z,6.57
2023-05-09T01:37:19.061Z,5.97
2023-05-09T01:39:52.580Z,5.65
2023-05-09T01:42:22.712Z,6.47
2023-05-09T01:44:50.928Z,5.80
2023-05-09T01:47:19.780Z,5.95
2023-05-09T01:49:49.077Z,6.22
2023-05-09T01:52:19.315Z,5.93
2023-05-09T01:54:47.808Z,5.28
2023-05-09T01:57:16.863Z,5.97
2023-05-09T01:59:46.503Z,6.13
2023-05-09T02:02:14.732Z,5.20
2023-05-09T02:04:43.453Z,5.65
2023-05-09T02:07:12.600Z,6.07
2023-05-09T02:09:39.960Z,5.50
2023-05-09T02:12:07.731Z,5.20
2023-05-09T02:14:35.093Z,5.45
2023-05-09T02:17:07.036Z,5.38
2023-05-09T02:19:35.598Z,6.60
2023-05-09T02:22:04.940Z,6.32
2023-05-09T02:24:34.733Z,5.70
2023-05-09T02:27:03.563Z,5.18
2023-05-09T02:29:40.071Z,4.93
2023-05-09T02:32:23.924Z,6.72
2023-05-09T02:34:54.034Z,4.88
2023-05-09T02:37:22.224Z,8.35
2023-05-09T02:39:49.521Z,4.90
2023-05-09T02:42:26.416Z,5.32
2023-05-09T02:44:54.767Z,5.55
2023-05-09T02:47:22.268Z,5.25
2023-05-09T02:49:49.594Z,6.50
2023-05-09T02:52:16.893Z,5.07
2023-05-09T02:54:44.311Z,5.03
2023-05-09T02:57:11.618Z,5.57
2023-05-09T02:59:38.829Z,5.13
2023-05-09T03:02:06.516Z,5.28
2023-05-09T03:04:34.126Z,6.45
2023-05-09T03:07:01.519Z,6.10
2023-05-09T03:09:28.783Z,5.18
2023-05-09T03:11:56.848Z,5.60
2023-05-09T03:14:24.458Z,5.45
2023-05-09T03:16:51.813Z,6.55
2023-05-09T03:19:19.106Z,5.15
2023-05-09T03:21:46.394Z,5.70
2023-05-09T03:24:13.691Z,5.97
2023-05-09T03:26:41.031Z,6.25
2023-05-09T03:29:08.373Z,6.40
2023-05-09T03:31:36.165Z,5.43
2023-05-09T03:34:03.452Z,5.40
2023-05-09T03:36:31.895Z,5.80
2023-05-09T03:38:59.222Z,5.55
2023-05-09T03:41:26.814Z,5.90
2023-05-09T03:43:54.137Z,5.30
2023-05-09T03:46:21.533Z,5.72
2023-05-09T03:48:48.807Z,4.93
2023-05-09T03:51:16.146Z,4.90
2023-05-09T03:53:43.854Z,6.22
2023-05-09T03:56:11.139Z,4.80
2023-05-09T03:58:38.444Z,5.45
2023-05-09T04:01:06.200Z,5.30
2023-05-09T04:03:33.811Z,5.78
2023-05-09T04:06:01.247Z,4.85
2023-05-09T04:08:28.611Z,5.63
2023-05-09T04:10:55.883Z,5.72
2023-05-09T04:13:23.311Z,5.60
2023-05-09T04:15:51.519Z,4.70
2023-05-09T04:18:18.901Z,5.55
2023-05-09T04:20:46.443Z,5.15
2023-05-09T04:23:13.795Z,5.05
2023-05-09T04:25:41.074Z,5.05
2023-05-09T04:28:08.410Z,5.70
2023-05-09T04:30:36.579Z,6.03
2023-05-09T04:33:04.287Z,6.72
2023-05-09T04:35:31.607Z,5.13
2023-05-09T04:37:58.859Z,5.78
2023-05-09T04:40:27.062Z,4.90
2023-05-09T04:42:54.506Z,5.50
2023-05-09T04:45:21.879Z,5.32
2023-05-09T04:47:49.165Z,5.32
2023-05-09T04:50:16.573Z,6.13
2023-05-09T04:52:43.929Z,5.85
2023-05-09T04:55:11.320Z,5.15
2023-05-09T04:57:38.655Z,7.25
2023-05-09T05:00:11.399Z,5.28
2023-05-09T05:02:39.125Z,6.10
2023-05-09T05:05:11.954Z,5.85
2023-05-09T05:07:40.060Z,5.68
2023-05-09T05:10:08.165Z,5.82
2023-05-09T05:12:35.754Z,5.85
2023-05-09T05:15:03.049Z,6.38
2023-05-09T05:17:30.424Z,6.43
2023-05-09T05:19:58.048Z,5.47
2023-05-09T05:22:25.365Z,5.82
2023-05-09T05:24:52.695Z,5.75
2023-05-09T05:27:20.026Z,6.15
2023-05-09T05:29:47.320Z,5.35
2023-05-09T05:32:14.640Z,5.45
2023-05-09T05:34:42.021Z,5.10
2023-05-09T05:37:09.332Z,5.35
2023-05-09T05:39:36.548Z,6.40
2023-05-09T05:42:03.902Z,6.00
2023-05-09T05:44:31.244Z,5.18
2023-05-09T05:46:58.570Z,6.60
2023-05-09T05:49:25.906Z,6.43
2023-05-09T05:51:53.148Z,5.55
2023-05-09T05:54:20.475Z,5.38
2023-05-09T05:56:48.013Z,4.82
2023-05-09T05:59:15.337Z,5.82
2023-05-09T06:01:42.661Z,5.38
2023-05-09T06:04:10.078Z,5.32
2023-05-09T06:06:37.623Z,6.00
2023-05-09T06:09:05.000Z,5.47
2023-05-09T06:11:32.274Z,6.38
2023-05-09T06:13:59.575Z,5.63
2023-05-09T06:16:26.955Z,7.65
2023-05-09T06:18:55.879Z,8.15
2023-05-09T06:21:23.677Z,5.75
2023-05-09T06:24:07.907Z,6.50
2023-05-09T06:26:37.721Z,6.50
2023-05-09T06:29:08.295Z,5.82
2023-05-09T06:31:38.454Z,6.40
2023-05-09T06:34:06.521Z,5.68
2023-05-09T06:36:34.751Z,7.60
2023-05-09T06:39:02.141Z,7.03
2023-05-09T06:41:29.452Z,5.38
2023-05-09T06:43:56.867Z,6.07
2023-05-09T06:46:24.234Z,6.90
2023-05-09T06:48:51.560Z,6.13
2023-05-09T06:51:18.973Z,5.53
2023-05-09T06:53:46.233Z,7.43
2023-05-09T06:56:13.558Z,5.80
2023-05-09T06:58:40.931Z,5.05
2023-05-09T07:01:08.322Z,7.85
2023-05-09T07:03:35.842Z,5.55
2023-05-09T07:06:03.108Z,5.57
2023-05-09T07:08:30.417Z,5.90
2023-05-09T07:10:58.087Z,5.10
2023-05-09T07:13:25.508Z,5.75
2023-05-09T07:15:52.944Z,6.25
2023-05-09T07:18:20.273Z,4.80
2023-05-09T07:20:47.608Z,4.03
2023-05-09T07:23:14.897Z,4.50
2023-05-09T07:25:42.245Z,6.00
2023-05-09T07:28:11.371Z,5.45
2023-05-09T07:30:38.799Z,5.28
2023-05-09T07:33:06.732Z,5.25
2023-05-09T07:35:34.127Z,4.63
2023-05-09T07:38:01.386Z,4.45
2023-05-09T07:40:28.694Z,3.70
2023-05-09T07:42:56.855Z,4.25
2023-05-09T07:45:24.277Z,3.92
2023-05-09T07:47:51.605Z,4.10
2023-05-09T07:50:18.983Z,3.67
2023-05-09T07:52:46.356Z,3.83
2023-05-09T07:55:13.974Z,3.95
2023-05-09T07:57:41.511Z,4.25
2023-05-09T08:00:10.640Z,4.72
2023-05-09T08:02:38.081Z,4.22
2023-05-09T08:05:05.925Z,3.60
2023-05-09T08:07:33.317Z,4.25
2023-05-09T08:10:00.771Z,3.60
2023-05-09T08:12:28.044Z,3.55
2023-05-09T08:14:55.270Z,3.72
2023-05-09T08:17:22.580Z,4.60
2023-05-09T08:19:49.827Z,4.30
2023-05-09T08:22:18.793Z,3.50
2023-05-09T08:24:46.688Z,4.60
2023-05-09T08:27:14.916Z,4.15
2023-05-09T08:29:42.805Z,4.22
2023-05-09T08:32:10.402Z,3.83
2023-05-09T08:34:37.718Z,4.20
2023-05-09T08:37:05.526Z,4.85
2023-05-09T08:39:34.950Z,4.20
2023-05-09T08:42:02.966Z,3.90
2023-05-09T08:44:31.637Z,4.57
2023-05-09T08:47:03.879Z,3.38
2023-05-09T08:49:31.743Z,3.72
2023-05-09T08:51:59.688Z,4.30
2023-05-09T08:54:27.258Z,4.15
2023-05-09T08:56:55.305Z,3.53
2023-05-09T08:59:23.187Z,3.95
2023-05-09T09:01:51.333Z,4.07
2023-05-09T09:04:18.721Z,3.22
2023-05-09T09:06:46.371Z,3.53
2023-05-09T09:09:15.411Z,5.22
2023-05-09T09:11:43.658Z,3.67
2023-05-09T09:14:20.279Z,3.67
2023-05-09T09:16:49.039Z,4.47
2023-05-09T09:19:18.836Z,3.60
2023-05-09T09:21:51.117Z,3.08
2023-05-09T09:24:23.096Z,3.10
2023-05-09T09:26:51.725Z,3.25
2023-05-09T09:29:20.635Z,3.20
2023-05-09T09:31:52.856Z,3.80
2023-05-09T09:34:22.480Z,3.70
2023-05-09T09:36:50.200Z,3.35
2023-05-09T09:39:17.546Z,3.83
2023-05-09T09:41:45.198Z,3.00
2023-05-09T09:44:15.493Z,3.65
2023-05-09T09:46:56.445Z,3.28
2023-05-09T09:49:25.790Z,3.53
2023-05-09T09:51:55.725Z,3.63
2023-05-09T09:54:26.118Z,2.88
2023-05-09T09:56:54.787Z,2.72
2023-05-09T09:59:25.037Z,4.07
2023-05-09T10:02:05.137Z,3.50
2023-05-09T10:04:36.669Z,3.08
2023-05-09T10:07:12.740Z,3.00
2023-05-09T10:09:43.760Z,2.58
2023-05-09T10:12:14.666Z,3.28
2023-05-09T10:14:43.270Z,3.13
2023-05-09T10:17:14.087Z,3.00
2023-05-09T10:19:45.930Z,2.85
2023-05-09T10:22:15.120Z,3.00
2023-05-09T10:25:01.368Z,2.90
2023-05-09T10:27:31.007Z,2.90
2023-05-09T10:30:10.399Z,2.85
2023-05-09T10:32:50.558Z,2.50
2023-05-09T10:35:19.511Z,2.65
2023-05-09T10:37:47.980Z,2.95
2023-05-09T10:40:15.993Z,2.60
2023-05-09T10:42:44.337Z,2.42
2023-05-09T10:45:13.516Z,2.45
2023-05-09T10:47:43.457Z,2.67
2023-05-09T10:50:15.402Z,3.50
2023-05-09T10:53:04.817Z,3.63
2023-05-09T10:56:00.343Z,3.00
2023-05-09T10:58:40.778Z,2.33
2023-05-09T11:01:08.131Z,2.67
2023-05-09T11:03:58.576Z,2.95
2023-05-09T11:06:51.041Z,2.30
2023-05-09T11:09:33.669Z,2.70
2023-05-09T11:12:13.998Z,2.30
2023-05-09T11:14:43.059Z,2.33
2023-05-09T11:17:11.560Z,2.35
2023-05-09T11:19:38.843Z,2.20
2023-05-09T11:22:27.466Z,2.20
2023-05-09T11:25:06.599Z,2.30
2023-05-09T11:27:43.885Z,2.00
2023-05-09T11:30:14.646Z,1.80
2023-05-09T11:32:55.246Z,2.40
2023-05-09T11:35:23.773Z,3.03
2023-05-09T11:37:55.186Z,2.30
2023-05-09T11:40:23.119Z,2.20
2023-05-09T11:42:58.103Z,2.28
2023-05-09T11:45:31.651Z,1.80
2023-05-09T11:48:00.566Z,2.00
2023-05-09T11:50:28.291Z,1.80
2023-05-09T11:52:55.883Z,2.00
2023-05-09T11:55:23.287Z,1.75
2023-05-09T11:57:54.577Z,2.00
2023-05-09T12:00:23.875Z,2.30
2023-05-09T12:02:52.693Z,2.00
2023-05-09T12:05:21.758Z,2.22
2023-05-09T12:07:49.194Z,3.03
2023-05-09T12:10:22.032Z,2.85
2023-05-09T12:12:51.441Z,1.98
2023-05-09T12:15:19.830Z,3.60
2023-05-09T12:17:49.743Z,2.45
2023-05-09T12:20:18.653Z,1.98
2023-05-09T12:22:52.956Z,2.22
2023-05-09T12:25:20.332Z,1.50
2023-05-09T12:27:47.718Z,2.17
2023-05-09T12:30:16.217Z,2.45
2023-05-09T12:32:43.934Z,1.70
2023-05-09T12:35:11.515Z,1.88
2023-05-09T12:37:39.258Z,2.03
2023-05-09T12:40:12.915Z,1.85
2023-05-09T12:42:43.405Z,2.08
2023-05-09T12:45:11.594Z,1.80
2023-05-09T12:47:39.542Z,1.88
2023-05-09T12:50:10.623Z,1.75
2023-05-09T12:53:02.054Z,2.15
2023-05-09T12:55:31.851Z,2.10
2023-05-09T12:58:01.964Z,1.85
2023-05-09T13:00:41.369Z,2.00
2023-05-09T13:03:21.746Z,2.20
2023-05-09T13:06:02.369Z,1.90
2023-05-09T13:08:30.642Z,2.70
2023-05-09T13:11:12.134Z,2.13
2023-05-09T13:13:42.966Z,2.00
2023-05-09T13:16:11.725Z,2.67
2023-05-09T13:18:40.799Z,1.98
2023-05-09T13:21:08.060Z,2.13
2023-05-09T13:23:35.393Z,1.73
2023-05-09T13:26:02.688Z,1.70
2023-05-09T13:28:29.996Z,1.77
2023-05-09T13:30:57.314Z,1.60
2023-05-09T13:33:26.329Z,1.58
2023-05-09T13:35:54.432Z,1.80
2023-05-09T13:38:21.742Z,1.80
2023-05-09T13:40:49.480Z,1.70
2023-05-09T13:43:16.880Z,1.75
2023-05-09T13:45:44.173Z,1.80
2023-05-09T13:48:11.785Z,1.95
2023-05-09T13:50:39.231Z,1.70
2023-05-09T13:53:06.553Z,2.03
2023-05-09T13:55:34.592Z,1.70
2023-05-09T13:58:01.964Z,1.77
2023-05-09T14:00:29.452Z,1.77
2023-05-09T14:02:56.775Z,3.38
2023-05-09T14:05:24.133Z,1.60
2023-05-09T14:07:51.582Z,2.22
2023-05-09T14:10:18.916Z,1.67
2023-05-09T14:12:47.499Z,1.45
2023-05-09T14:15:14.919Z,1.60
2023-05-09T14:17:43.544Z,2.47
2023-05-09T14:20:12.363Z,2.17
2023-05-09T14:22:39.762Z,1.48
2023-05-09T14:25:07.746Z,1.52
2023-05-09T14:27:37.129Z,1.40
2023-05-09T14:30:05.342Z,2.00
2023-05-09T14:32:32.888Z,1.60
2023-05-09T14:35:00.408Z,1.60
2023-05-09T14:37:29.517Z,1.55
2023-05-09T14:39:56.981Z,1.73
2023-05-09T14:42:24.262Z,1.58
2023-05-09T14:44:51.587Z,1.58
2023-05-09T14:47:19.052Z,1.58
2023-05-09T14:49:46.328Z,1.75
2023-05-09T14:52:13.818Z,1.60
2023-05-09T14:54:41.970Z,1.77
2023-05-09T14:57:09.268Z,1.75
2023-05-09T14:59:37.280Z,1.50
2023-05-09T15:02:04.748Z,1.60
2023-05-09T15:04:32.231Z,1.33
2023-05-09T15:06:59.750Z,1.60
2023-05-09T15:09:28.003Z,1.58
2023-05-09T15:11:55.853Z,1.45
2023-05-09T15:14:23.150Z,1.40
2023-05-09T15:16:52.294Z,1.45
2023-05-09T15:19:21.971Z,1.20
2023-05-09T15:21:49.312Z,1.30
2023-05-09T15:24:17.071Z,1.30
2023-05-09T15:26:44.442Z,1.23
2023-05-09T15:29:11.763Z,1.23
2023-05-09T15:31:39.066Z,0.90
2023-05-09T15:34:06.419Z,1.10
2023-05-09T15:36:36.339Z,1.10
2023-05-09T15:39:05.148Z,1.10
2023-05-09T15:41:32.482Z,1.25
2023-05-09T15:43:59.792Z,0.98
2023-05-09T15:46:28.302Z,0.85
2023-05-09T15:48:56.685Z,1.10
2023-05-09T15:51:24.776Z,0.90
2023-05-09T15:53:52.087Z,1.10
2023-05-09T15:56:19.375Z,1.35
2023-05-09T15:58:46.678Z,1.15
2023-05-09T16:01:14.634Z,1.20
2023-05-09T16:03:42.235Z,1.10
2023-05-09T16:06:10.513Z,0.82
2023-05-09T16:08:37.980Z,0.93
2023-05-09T16:11:05.566Z,1.42
2023-05-09T16:13:34.363Z,1.83
2023-05-09T16:16:03.335Z,1.08
2023-05-09T16:18:30.712Z,1.30
2023-05-09T16:20:58.002Z,1.02
2023-05-09T16:23:25.970Z,1.10
2023-05-09T16:25:53.341Z,2.10
2023-05-09T16:28:23.425Z,2.85
2023-05-09T16:30:51.515Z,1.05
2023-05-09T16:33:18.902Z,1.13
2023-05-09T16:35:46.530Z,2.28
2023-05-09T16:38:14.004Z,2.28
2023-05-09T16:40:41.438Z,1.08
2023-05-09T16:43:08.725Z,3.30
2023-05-09T16:45:36.106Z,2.72
2023-05-09T16:48:03.531Z,3.13
2023-05-09T16:50:30.835Z,1.60
2023-05-09T16:52:58.194Z,4.75
2023-05-09T16:55:25.609Z,2.58
2023-05-09T16:57:52.882Z,4.70
2023-05-09T17:00:20.748Z,4.82
2023-05-09T17:02:48.075Z,8.48
2023-05-09T17:05:15.401Z,10.05
2023-05-09T17:07:42.734Z,8.65
2023-05-09T17:10:10.566Z,6.47
2023-05-09T17:12:39.446Z,8.65
2023-05-09T17:15:08.513Z,9.50
2023-05-09T17:17:36.282Z,8.10
2023-05-09T17:20:04.497Z,6.95
2023-05-09T17:22:32.033Z,11.63
2023-05-09T17:24:59.330Z,13.15
2023-05-09T17:27:27.168Z,19.33
2023-05-09T17:29:54.473Z,15.98
2023-05-09T17:32:21.830Z,12.05
2023-05-09T17:34:49.069Z,10.88
2023-05-09T17:37:17.241Z,13.82
2023-05-09T17:39:44.530Z,11.63
2023-05-09T17:42:12.710Z,13.45
2023-05-09T17:44:41.012Z,12.57
2023-05-09T17:47:09.493Z,9.35
2023-05-09T17:49:36.860Z,8.82
2023-05-09T17:52:04.389Z,9.90
2023-05-09T17:54:31.721Z,12.13
2023-05-09T17:57:01.348Z,9.02
2023-05-09T17:59:29.092Z,8.77
2023-05-09T18:01:56.493Z,9.23
2023-05-09T18:04:23.811Z,10.00
2023-05-09T18:06:51.212Z,9.60
2023-05-09T18:09:18.574Z,9.02
2023-05-09T18:11:45.918Z,11.20
2023-05-09T18:14:13.211Z,8.85
2023-05-09T18:16:40.534Z,10.00
2023-05-09T18:19:08.179Z,9.32
2023-05-09T18:21:35.651Z,9.00
2023-05-09T18:24:03.084Z,8.95
2023-05-09T18:26:30.371Z,10.02
2023-05-09T18:28:58.896Z,10.68
2023-05-09T18:31:26.342Z,6.93
2023-05-09T18:33:53.795Z,6.95
2023-05-09T18:36:21.091Z,8.20
2023-05-09T18:38:48.384Z,6.82
2023-05-09T18:41:15.925Z,7.50
2023-05-09T18:43:46.546Z,6.80
2023-05-09T18:46:17.830Z,8.38
2023-05-09T18:48:47.165Z,7.38
2023-05-09T18:51:14.702Z,7.05
2023-05-09T18:53:42.425Z,6.28
2023-05-09T18:56:09.738Z,8.27
2023-05-09T18:58:37.452Z,8.77
2023-05-09T19:01:05.133Z,7.70
2023-05-09T19:03:32.606Z,11.95
2023-05-09T19:06:00.226Z,8.15
2023-05-09T19:08:29.190Z,8.32
2023-05-09T19:10:56.477Z,5.95
2023-05-09T19:13:23.827Z,7.63
2023-05-09T19:15:51.299Z,9.45
2023-05-09T19:18:18.574Z,8.63
2023-05-09T19:20:47.227Z,5.93
2023-05-09T19:23:14.511Z,9.23
2023-05-09T19:25:41.851Z,9.43
2023-05-09T19:28:09.181Z,7.53
2023-05-09T19:30:36.536Z,7.18
2023-05-09T19:33:03.960Z,7.80
2023-05-09T19:35:31.347Z,6.35
2023-05-09T19:37:59.022Z,7.78
2023-05-09T19:40:26.401Z,6.57
2023-05-09T19:42:53.649Z,4.90
2023-05-09T19:45:21.034Z,7.57
2023-05-09T19:47:48.603Z,8.13
2023-05-09T19:50:16.281Z,5.93
2023-05-09T19:52:43.749Z,11.68
2023-05-09T19:55:12.648Z,8.23
2023-05-09T19:57:40.160Z,12.18
2023-05-09T20:00:08.151Z,10.00
2023-05-09T20:02:35.837Z,11.52
2023-05-09T20:05:03.622Z,10.98
2023-05-09T20:07:31.130Z,9.40
2023-05-09T20:09:58.355Z,10.35
2023-05-09T20:12:27.303Z,9.13
2023-05-09T20:14:56.018Z,10.20
2023-05-09T20:17:23.379Z,11.07
2023-05-09T20:19:51.219Z,12.98
2023-05-09T20:22:18.515Z,9.57
2023-05-09T20:24:45.933Z,13.40
2023-05-09T20:27:13.227Z,12.88
2023-05-09T20:29:40.487Z,14.43
2023-05-09T20:32:08.111Z,18.48
2023-05-09T20:34:35.743Z,13.68
2023-05-09T20:37:03.099Z,13.07
2023-05-09T20:39:30.416Z,10.57
2023-05-09T20:42:02.138Z,14.00
2023-05-09T20:44:29.581Z,17.52
2023-05-09T20:46:56.859Z,14.13
2023-05-09T20:49:24.568Z,13.20
2023-05-09T20:51:51.808Z,10.90
2023-05-09T20:54:19.103Z,10.15
2023-05-09T20:56:46.432Z,9.32
2023-05-09T20:59:13.706Z,8.57
2023-05-09T21:01:41.270Z,13.38
2023-05-09T21:04:08.627Z,10.48
2023-05-09T21:06:38.746Z,8.43
2023-05-09T21:09:06.250Z,10.35
2023-05-09T21:11:33.555Z,9.50
2023-05-09T21:14:00.861Z,9.07
2023-05-09T21:16:28.427Z,7.35
2023-05-09T21:18:55.784Z,9.05
2023-05-09T21:21:23.159Z,10.27
2023-05-09T21:23:50.397Z,11.13
2023-05-09T21:26:17.743Z,10.43
2023-05-09T21:28:45.076Z,7.85
2023-05-09T21:31:12.427Z,9.13
2023-05-09T21:33:39.813Z,5.70
2023-05-09T21:36:07.739Z,7.03
2023-05-09T21:38:35.305Z,8.85
2023-05-09T21:41:02.547Z,6.97
2023-05-09T21:43:29.867Z,8.85
2023-05-09T21:45:57.366Z,6.53
2023-05-09T21:48:24.700Z,6.63
2023-05-09T21:50:51.949Z,6.30
2023-05-09T21:53:19.187Z,5.38
2023-05-09T21:55:47.367Z,7.43
2023-05-09T21:58:14.635Z,7.00
2023-05-09T22:00:41.954Z,6.93
2023-05-09T22:03:09.266Z,5.32
2023-05-09T22:05:36.663Z,7.53
2023-05-09T22:08:04.361Z,4.95
2023-05-09T22:10:31.725Z,6.05
2023-05-09T22:12:59.128Z,7.15
2023-05-09T22:15:27.095Z,6.10
2023-05-09T22:17:54.448Z,6.97
2023-05-09T22:20:21.764Z,5.22
2023-05-09T22:22:49.016Z,7.32
2023-05-09T22:25:16.320Z,5.93
2023-05-09T22:27:43.595Z,4.97
2023-05-09T22:30:12.458Z,5.15
2023-05-09T22:32:40.279Z,5.22
2023-05-09T22:35:08.203Z,6.13
2023-05-09T22:37:35.548Z,5.82
2023-05-09T22:40:03.157Z,5.30
2023-05-09T22:42:30.445Z,5.38
2023-05-09T22:44:58.308Z,6.13
2023-05-09T22:47:25.659Z,5.43
2023-05-09T22:49:53.038Z,5.30
2023-05-09T22:52:20.652Z,5.70
2023-05-09T22:54:47.966Z,5.07
2023-05-09T22:57:17.769Z,5.93
2023-05-09T22:59:45.219Z,5.95
2023-05-09T23:02:13.213Z,5.53
2023-05-09T23:04:41.142Z,5.55
2023-05-09T23:07:08.689Z,6.05
2023-05-09T23:09:36.011Z,5.80
2023-05-09T23:12:03.538Z,6.68
2023-05-09T23:14:31.290Z,5.85
2023-05-09T23:16:58.526Z,6.57
2023-05-09T23:19:25.753Z,6.88
2023-05-09T23:21:53.396Z,6.72
2023-05-09T23:24:20.738Z,6.88
2023-05-09T23:26:48.016Z,7.22
2023-05-09T23:29:15.364Z,6.22
2023-05-09T23:31:42.764Z,6.15
2023-05-09T23:34:10.082Z,6.40
2023-05-09T23:36:37.332Z,5.93
2023-05-09T23:39:04.830Z,5.63
2023-05-09T23:41:32.129Z,6.38
2023-05-09T23:43:59.482Z,6.43
2023-05-09T23:46:27.204Z,6.50
2023-05-09T23:48:54.539Z,6.47
2023-05-09T23:51:22.629Z,6.13
2023-05-09T23:53:50.479Z,7.28
2023-05-09T23:56:17.798Z,7.75
2023-05-09T23:58:45.047Z,8.27
